createdAt,value
2022-12-20T00:01:31.907Z,19.45
2022-12-20T00:03:35.258Z,18.08
2022-12-20T00:05:42.629Z,16.92
2022-12-20T00:07:45.687Z,18.50
2022-12-20T00:09:48.727Z,18.40
2022-12-20T00:11:51.899Z,20.60
2022-12-20T00:13:55.043Z,20.00
2022-12-20T00:16:06.344Z,19.70
2022-12-20T00:18:10.786Z,17.98
2022-12-20T00:20:14.250Z,19.50
2022-12-20T00:22:17.324Z,17.95
2022-12-20T00:24:25.800Z,18.27
2022-12-20T00:26:31.540Z,16.45
2022-12-20T00:28:44.618Z,17.60
2022-12-20T00:30:55.122Z,24.33
2022-12-20T00:32:58.291Z,18.30
2022-12-20T00:35:02.689Z,19.63
2022-12-20T00:37:07.667Z,22.83
2022-12-20T00:39:11.494Z,19.83
2022-12-20T00:41:16.163Z,18.48
2022-12-20T00:43:19.164Z,21.90
2022-12-20T00:45:23.113Z,15.68
2022-12-20T00:47:26.203Z,15.50
2022-12-20T00:49:29.221Z,15.90
2022-12-20T00:51:33.766Z,15.85
2022-12-20T00:53:37.068Z,15.65
2022-12-20T00:55:42.499Z,16.25
2022-12-20T00:57:45.546Z,15.73
2022-12-20T00:59:49.154Z,15.95
2022-12-20T01:01:52.624Z,15.35
2022-12-20T01:03:56.389Z,16.92
2022-12-20T01:06:01.331Z,17.15
2022-12-20T01:08:06.452Z,17.83
2022-12-20T01:10:11.731Z,21.38
2022-12-20T01:12:20.253Z,20.73
2022-12-20T01:14:23.336Z,17.10
2022-12-20T01:16:30.079Z,15.48
2022-12-20T01:18:35.031Z,15.02
2022-12-20T01:20:38.171Z,17.98
2022-12-20T01:22:47.337Z,16.50
2022-12-20T01:24:52.418Z,16.38
2022-12-20T01:26:55.537Z,18.33
2022-12-20T01:29:01.816Z,18.88
2022-12-20T01:31:08.460Z,32.50
2022-12-20T01:33:11.476Z,20.80
2022-12-20T01:35:14.608Z,17.88
2022-12-20T01:37:18.933Z,18.45
2022-12-20T01:39:22.165Z,22.30
2022-12-20T01:41:27.187Z,17.77
2022-12-20T01:43:47.737Z,17.15
2022-12-20T01:45:50.868Z,19.98
2022-12-20T01:47:54.019Z,16.85
2022-12-20T01:49:57.863Z,13.45
2022-12-20T01:52:04.645Z,14.45
2022-12-20T01:54:11.789Z,14.43
2022-12-20T01:56:14.782Z,13.95
2022-12-20T01:58:20.457Z,14.60
2022-12-20T02:00:24.154Z,17.90
2022-12-20T02:02:28.104Z,20.63
2022-12-20T02:04:31.218Z,17.33
2022-12-20T02:06:34.603Z,15.85
2022-12-20T02:08:37.659Z,15.00
2022-12-20T02:10:51.377Z,15.40
2022-12-20T02:13:00.495Z,15.43
2022-12-20T02:15:16.116Z,13.60
2022-12-20T02:17:25.302Z,13.85
2022-12-20T02:19:55.238Z,13.70
2022-12-20T02:22:03.790Z,12.73
2022-12-20T02:24:38.568Z,12.15
2022-12-20T02:27:08.476Z,12.65
2022-12-20T02:29:23.276Z,12.15
2022-12-20T02:31:37.715Z,13.82
2022-12-20T02:33:43.315Z,12.95
2022-12-20T02:35:46.387Z,14.13
2022-12-20T02:37:55.464Z,12.52
2022-12-20T02:39:58.564Z,13.13
2022-12-20T02:42:05.282Z,12.63
2022-12-20T02:44:28.233Z,12.48
2022-12-20T02:46:35.308Z,11.75
2022-12-20T02:48:38.848Z,11.80
2022-12-20T02:50:46.032Z,12.27
2022-12-20T02:52:49.543Z,11.65
2022-12-20T02:54:54.085Z,10.88
2022-12-20T02:56:58.778Z,12.63
2022-12-20T02:59:05.154Z,11.15
2022-12-20T03:01:11.430Z,11.80
2022-12-20T03:03:25.799Z,10.68
2022-12-20T03:05:29.252Z,11.10
2022-12-20T03:07:35.233Z,10.80
2022-12-20T03:09:39.939Z,10.52
2022-12-20T03:11:43.027Z,12.00
2022-12-20T03:13:46.104Z,11.00
2022-12-20T03:15:49.223Z,11.50
2022-12-20T03:17:52.196Z,10.55
2022-12-20T03:19:58.232Z,11.95
2022-12-20T03:22:01.412Z,10.77
2022-12-20T03:24:07.560Z,11.60
2022-12-20T03:26:10.521Z,11.00
2022-12-20T03:28:22.926Z,10.50
2022-12-20T03:30:26.035Z,11.30
2022-12-20T03:32:29.051Z,11.75
2022-12-20T03:34:33.037Z,10.57
2022-12-20T03:36:38.465Z,11.65
2022-12-20T03:38:42.300Z,10.90
2022-12-20T03:40:47.061Z,11.48
2022-12-20T03:42:54.488Z,10.68
2022-12-20T03:44:57.573Z,13.10
2022-12-20T03:47:03.706Z,11.38
2022-12-20T03:49:07.145Z,10.55
2022-12-20T03:51:17.897Z,11.57
2022-12-20T03:53:22.736Z,11.02
2022-12-20T03:55:27.196Z,9.63
2022-12-20T03:57:30.498Z,11.07
2022-12-20T03:59:35.550Z,10.90
2022-12-20T04:01:40.032Z,10.10
2022-12-20T04:03:43.362Z,10.13
2022-12-20T04:05:46.789Z,10.20
2022-12-20T04:07:50.111Z,10.40
2022-12-20T04:09:54.501Z,9.98
2022-12-20T04:11:57.567Z,9.57
2022-12-20T04:14:00.589Z,10.07
2022-12-20T04:16:04.112Z,9.93
2022-12-20T04:18:09.067Z,9.25
2022-12-20T04:20:20.926Z,9.90
2022-12-20T04:22:37.649Z,10.00
2022-12-20T04:24:42.074Z,10.30
2022-12-20T04:27:01.671Z,9.55
2022-12-20T04:29:05.350Z,8.98
2022-12-20T04:31:09.094Z,9.15
2022-12-20T04:33:13.465Z,9.20
2022-12-20T04:35:17.674Z,9.15
2022-12-20T04:37:20.697Z,10.10
2022-12-20T04:39:28.460Z,8.85
2022-12-20T04:41:50.156Z,9.05
2022-12-20T04:43:55.645Z,10.35
2022-12-20T04:46:00.267Z,8.65
2022-12-20T04:48:28.695Z,8.65
2022-12-20T04:50:27.604Z,9.00
2022-12-20T04:52:48.521Z,8.80
2022-12-20T04:54:52.619Z,8.57
2022-12-20T04:57:01.585Z,8.27
2022-12-20T04:59:06.613Z,14.90
2022-12-20T05:01:10.410Z,13.25
2022-12-20T05:03:21.424Z,10.20
2022-12-20T05:05:24.556Z,9.30
2022-12-20T05:07:30.270Z,9.10
2022-12-20T05:09:33.607Z,10.75
2022-12-20T05:11:36.754Z,10.85
2022-12-20T05:13:44.023Z,10.52
2022-12-20T05:15:52.034Z,9.82
2022-12-20T05:17:59.647Z,9.68
2022-12-20T05:20:08.780Z,8.93
2022-12-20T05:22:30.605Z,8.93
2022-12-20T05:24:59.751Z,9.73
2022-12-20T05:27:09.103Z,8.63
2022-12-20T05:29:12.295Z,9.30
2022-12-20T05:31:16.806Z,8.98
2022-12-20T05:33:20.015Z,9.07
2022-12-20T05:35:23.119Z,8.55
2022-12-20T05:37:32.352Z,8.95
2022-12-20T05:39:43.087Z,8.50
2022-12-20T05:41:53.707Z,8.80
2022-12-20T05:43:59.137Z,8.95
2022-12-20T05:46:03.413Z,9.00
2022-12-20T05:48:17.567Z,9.05
2022-12-20T05:50:20.852Z,9.60
2022-12-20T05:52:55.821Z,9.07
2022-12-20T05:55:03.766Z,9.88
2022-12-20T05:57:06.938Z,8.75
2022-12-20T05:59:17.735Z,8.65
2022-12-20T06:01:22.924Z,9.02
2022-12-20T06:03:31.111Z,8.90
2022-12-20T06:05:35.320Z,8.00
2022-12-20T06:07:38.562Z,8.27
2022-12-20T06:09:41.647Z,8.70
2022-12-20T06:11:49.159Z,8.43
2022-12-20T06:13:52.215Z,8.40
2022-12-20T06:15:55.786Z,8.70
2022-12-20T06:17:59.178Z,8.35
2022-12-20T06:20:04.072Z,8.73
2022-12-20T06:22:07.068Z,8.45
2022-12-20T06:24:25.245Z,8.20
2022-12-20T06:26:35.965Z,8.30
2022-12-20T06:28:42.813Z,7.60
2022-12-20T06:31:01.384Z,8.30
2022-12-20T06:33:15.509Z,7.90
2022-12-20T06:35:21.784Z,8.63
2022-12-20T06:37:25.403Z,8.60
2022-12-20T06:39:28.643Z,8.27
2022-12-20T06:41:38.962Z,7.60
2022-12-20T06:43:42.139Z,8.13
2022-12-20T06:45:45.568Z,8.00
2022-12-20T06:47:48.963Z,8.55
2022-12-20T06:49:53.130Z,7.85
2022-12-20T06:52:00.088Z,7.70
2022-12-20T06:54:19.946Z,7.75
2022-12-20T06:56:41.925Z,9.25
2022-12-20T06:58:47.587Z,7.97
2022-12-20T07:00:50.780Z,7.75
2022-12-20T07:02:54.765Z,7.70
2022-12-20T07:04:57.989Z,8.55
2022-12-20T07:07:02.365Z,8.63
2022-12-20T07:09:05.538Z,9.20
2022-12-20T07:11:09.223Z,9.30
2022-12-20T07:13:12.384Z,9.57
2022-12-20T07:15:15.545Z,8.65
2022-12-20T07:17:18.742Z,8.75
2022-12-20T07:19:22.743Z,8.63
2022-12-20T07:21:26.126Z,8.48
2022-12-20T07:23:30.834Z,8.75
2022-12-20T07:25:33.889Z,8.68
2022-12-20T07:27:37.033Z,7.85
2022-12-20T07:29:40.636Z,8.75
2022-12-20T07:31:43.980Z,8.32
2022-12-20T07:33:47.021Z,8.93
2022-12-20T07:35:54.472Z,8.30
2022-12-20T07:37:57.766Z,7.60
2022-12-20T07:40:02.126Z,8.10
2022-12-20T07:42:05.623Z,8.32
2022-12-20T07:44:18.119Z,8.77
2022-12-20T07:46:22.143Z,8.88
2022-12-20T07:48:25.719Z,9.10
2022-12-20T07:50:29.211Z,10.07
2022-12-20T07:52:34.389Z,10.38
2022-12-20T07:54:39.691Z,10.38
2022-12-20T07:56:47.090Z,11.90
2022-12-20T07:58:52.017Z,11.35
2022-12-20T08:00:55.500Z,12.60
2022-12-20T08:03:03.337Z,11.65
2022-12-20T08:05:08.966Z,12.45
2022-12-20T08:07:12.501Z,12.35
2022-12-20T08:09:16.177Z,12.75
2022-12-20T08:11:19.655Z,11.65
2022-12-20T08:13:24.076Z,11.52
2022-12-20T08:15:27.493Z,10.38
2022-12-20T08:17:30.554Z,10.88
2022-12-20T08:19:33.568Z,10.45
2022-12-20T08:21:36.663Z,11.30
2022-12-20T08:23:39.961Z,10.63
2022-12-20T08:25:43.002Z,12.00
2022-12-20T08:27:46.175Z,10.85
2022-12-20T08:29:50.901Z,11.85
2022-12-20T08:31:57.208Z,11.45
2022-12-20T08:34:00.359Z,11.05
2022-12-20T08:36:05.360Z,14.15
2022-12-20T08:38:08.573Z,17.10
2022-12-20T08:40:14.823Z,19.33
2022-12-20T08:42:17.767Z,17.73
2022-12-20T08:44:23.357Z,11.75
2022-12-20T08:46:27.816Z,11.63
2022-12-20T08:48:31.627Z,13.32
2022-12-20T08:50:36.253Z,16.10
2022-12-20T08:52:40.144Z,18.80
2022-12-20T08:54:43.187Z,22.40
2022-12-20T08:56:46.220Z,21.55
2022-12-20T08:58:49.331Z,18.13
2022-12-20T09:00:52.422Z,18.77
2022-12-20T09:02:56.898Z,16.48
2022-12-20T09:05:00.153Z,14.07
2022-12-20T09:07:03.443Z,12.68
2022-12-20T09:09:07.092Z,14.10
2022-12-20T09:11:12.328Z,13.43
2022-12-20T09:13:15.418Z,13.02
2022-12-20T09:15:18.649Z,14.10
2022-12-20T09:17:21.762Z,12.88
2022-12-20T09:19:26.330Z,12.38
2022-12-20T09:21:29.581Z,15.02
2022-12-20T09:23:33.734Z,13.40
2022-12-20T09:25:38.423Z,14.40
2022-12-20T09:27:41.488Z,13.85
2022-12-20T09:29:44.476Z,14.18
2022-12-20T09:31:47.555Z,15.93
2022-12-20T09:33:51.039Z,14.00
2022-12-20T09:35:55.963Z,14.77
2022-12-20T09:37:59.150Z,14.85
2022-12-20T09:40:02.123Z,17.33
2022-12-20T09:42:09.253Z,17.10
2022-12-20T09:44:17.430Z,14.70
2022-12-20T09:46:20.938Z,14.52
2022-12-20T09:48:26.786Z,13.98
2022-12-20T09:50:41.174Z,14.35
2022-12-20T09:52:57.016Z,14.13
2022-12-20T09:55:09.659Z,17.55
2022-12-20T09:57:20.574Z,31.55
2022-12-20T09:59:47.528Z,32.53
2022-12-20T10:01:53.163Z,27.27
2022-12-20T10:03:58.349Z,24.83
2022-12-20T10:06:07.840Z,23.25
2022-12-20T10:08:18.613Z,19.58
2022-12-20T10:10:40.538Z,17.58
2022-12-20T10:12:47.679Z,16.88
2022-12-20T10:15:02.511Z,14.10
2022-12-20T10:17:09.627Z,14.55
2022-12-20T10:19:34.862Z,13.73
2022-12-20T10:21:41.809Z,14.23
2022-12-20T10:23:57.669Z,14.88
2022-12-20T10:26:01.087Z,15.20
2022-12-20T10:28:06.813Z,16.63
2022-12-20T10:30:14.407Z,14.57
2022-12-20T10:32:20.049Z,15.20
2022-12-20T10:34:24.444Z,15.00
2022-12-20T10:36:29.688Z,14.50
2022-12-20T10:38:46.512Z,14.15
2022-12-20T10:41:20.789Z,14.18
2022-12-20T10:43:25.075Z,14.20
2022-12-20T10:45:38.225Z,15.30
2022-12-20T10:47:43.412Z,16.55
2022-12-20T10:49:46.495Z,18.20
2022-12-20T10:51:53.326Z,15.88
2022-12-20T10:54:01.130Z,15.88
2022-12-20T10:56:20.211Z,15.57
2022-12-20T10:58:33.674Z,15.38
2022-12-20T11:00:37.714Z,15.82
2022-12-20T11:02:43.979Z,13.23
2022-12-20T11:04:58.757Z,12.93
2022-12-20T11:07:03.248Z,13.77
2022-12-20T11:09:37.951Z,13.88
2022-12-20T11:11:41.337Z,13.82
2022-12-20T11:13:44.888Z,22.00
2022-12-20T11:15:50.036Z,19.17
2022-12-20T11:17:55.940Z,26.90
2022-12-20T11:20:22.870Z,18.95
2022-12-20T11:22:35.806Z,17.10
2022-12-20T11:24:46.180Z,31.25
2022-12-20T11:27:02.040Z,28.00
2022-12-20T11:29:17.757Z,19.58
2022-12-20T11:31:27.910Z,19.25
2022-12-20T11:33:59.350Z,25.90
2022-12-20T11:36:04.536Z,26.27
2022-12-20T11:38:11.483Z,41.42
2022-12-20T11:40:27.256Z,44.90
2022-12-20T11:42:39.302Z,37.95
2022-12-20T11:45:03.472Z,33.58
2022-12-20T11:47:29.327Z,24.48
2022-12-20T11:50:06.516Z,18.83
2022-12-20T11:52:17.908Z,15.32
2022-12-20T11:54:25.502Z,14.70
2022-12-20T11:56:38.671Z,18.40
2022-12-20T11:58:52.062Z,25.05
2022-12-20T12:00:57.422Z,23.02
2022-12-20T12:03:05.235Z,80.68
2022-12-20T12:05:18.237Z,31.20
2022-12-20T12:07:24.760Z,28.70
2022-12-20T12:09:32.968Z,21.75
2022-12-20T12:12:05.962Z,18.30
2022-12-20T12:14:05.188Z,18.83
2022-12-20T12:16:11.726Z,18.73
2022-12-20T12:18:19.037Z,21.30
2022-12-20T12:20:26.991Z,23.98
2022-12-20T12:22:40.042Z,21.95
2022-12-20T12:24:45.219Z,21.67
2022-12-20T12:26:49.736Z,21.95
2022-12-20T12:28:56.558Z,18.73
2022-12-20T12:31:04.659Z,17.55
2022-12-20T12:33:12.185Z,16.67
2022-12-20T12:35:39.712Z,14.85
2022-12-20T12:38:03.919Z,28.23
2022-12-20T12:40:35.406Z,22.10
2022-12-20T12:43:14.491Z,22.50
2022-12-20T12:45:22.634Z,16.88
2022-12-20T12:47:30.996Z,17.65
2022-12-20T12:49:34.693Z,15.68
2022-12-20T12:51:39.009Z,16.75
2022-12-20T12:53:44.652Z,18.13
2022-12-20T12:55:49.499Z,18.15
2022-12-20T12:57:59.037Z,19.52
2022-12-20T13:00:02.223Z,21.92
2022-12-20T13:02:25.401Z,26.95
2022-12-20T13:04:30.433Z,44.13
2022-12-20T13:06:57.209Z,32.88
2022-12-20T13:09:19.198Z,27.13
2022-12-20T13:11:31.685Z,22.83
2022-12-20T13:13:34.818Z,20.70
2022-12-20T13:16:20.012Z,20.15
2022-12-20T13:18:28.418Z,23.60
2022-12-20T13:20:32.669Z,21.00
2022-12-20T13:22:35.858Z,18.00
2022-12-20T13:24:56.450Z,18.42
2022-12-20T13:27:00.623Z,18.85
2022-12-20T13:29:22.798Z,18.17
2022-12-20T13:31:33.798Z,18.58
2022-12-20T13:33:43.015Z,19.77
2022-12-20T13:35:56.293Z,23.25
2022-12-20T13:38:04.669Z,32.35
2022-12-20T13:40:19.978Z,28.15
2022-12-20T13:42:34.687Z,28.08
2022-12-20T13:44:42.839Z,27.98
2022-12-20T13:47:02.944Z,25.65
2022-12-20T13:49:11.747Z,22.83
2022-12-20T13:51:17.851Z,22.08
2022-12-20T13:53:22.752Z,24.63
2022-12-20T13:55:35.761Z,21.73
2022-12-20T13:58:13.857Z,25.55
2022-12-20T14:00:20.053Z,20.13
2022-12-20T14:02:43.388Z,19.27
2022-12-20T14:04:57.242Z,19.85
2022-12-20T14:07:02.204Z,19.45
2022-12-20T14:09:05.837Z,20.33
2022-12-20T14:11:11.294Z,19.35
2022-12-20T14:13:22.876Z,21.60
2022-12-20T14:15:29.037Z,38.53
2022-12-20T14:17:35.700Z,26.30
2022-12-20T14:19:41.879Z,19.20
2022-12-20T14:21:47.822Z,15.57
2022-12-20T14:23:52.838Z,18.75
2022-12-20T14:25:58.186Z,18.98
2022-12-20T14:28:01.550Z,19.02
2022-12-20T14:30:05.687Z,20.08
2022-12-20T14:32:19.355Z,44.50
2022-12-20T14:34:29.476Z,35.80
2022-12-20T14:36:36.240Z,32.30
2022-12-20T14:38:41.669Z,28.92
2022-12-20T14:40:48.943Z,23.77
2022-12-20T14:42:55.514Z,21.17
2022-12-20T14:45:05.006Z,19.52
2022-12-20T14:47:16.624Z,18.65
2022-12-20T14:49:23.627Z,21.00
2022-12-20T14:51:26.851Z,19.30
2022-12-20T14:53:30.364Z,19.53
2022-12-20T14:55:37.589Z,25.20
2022-12-20T14:57:48.452Z,17.98
2022-12-20T15:00:00.839Z,17.73
2022-12-20T15:02:38.022Z,24.50
2022-12-20T15:04:41.460Z,28.80
2022-12-20T15:06:45.775Z,27.92
2022-12-20T15:08:48.934Z,25.90
2022-12-20T15:10:55.934Z,26.27
2022-12-20T15:12:59.004Z,22.42
2022-12-20T15:15:23.959Z,22.00
2022-12-20T15:17:25.638Z,20.70
2022-12-20T15:19:28.881Z,21.30
2022-12-20T15:21:33.663Z,22.85
2022-12-20T15:23:37.041Z,28.55
2022-12-20T15:25:43.300Z,25.77
2022-12-20T15:27:48.641Z,25.90
2022-12-20T15:29:51.717Z,21.85
2022-12-20T15:32:01.807Z,21.20
2022-12-20T15:34:05.912Z,20.20
2022-12-20T15:36:15.169Z,20.08
2022-12-20T15:38:34.620Z,25.17
2022-12-20T15:40:44.173Z,24.80
2022-12-20T15:42:48.569Z,28.90
2022-12-20T15:44:51.874Z,26.65
2022-12-20T15:46:55.105Z,20.75
2022-12-20T15:48:59.528Z,22.55
2022-12-20T15:51:02.563Z,25.58
2022-12-20T15:53:05.747Z,23.42
2022-12-20T15:55:11.802Z,21.73
2022-12-20T15:57:15.918Z,23.67
2022-12-20T15:59:57.629Z,25.17
2022-12-20T16:01:43.671Z,18.73
2022-12-20T16:03:47.466Z,18.65
2022-12-20T16:05:51.245Z,17.52
2022-12-20T16:07:54.343Z,18.02
2022-12-20T16:09:57.548Z,16.75
2022-12-20T16:12:00.935Z,17.85
2022-12-20T16:14:04.237Z,16.40
2022-12-20T16:16:13.879Z,25.15
2022-12-20T16:18:17.225Z,23.77
2022-12-20T16:20:20.456Z,21.80
2022-12-20T16:22:26.134Z,28.35
2022-12-20T16:24:29.263Z,29.33
2022-12-20T16:26:32.284Z,24.95
2022-12-20T16:28:35.340Z,25.27
2022-12-20T16:30:38.354Z,30.00
2022-12-20T16:32:42.890Z,28.02
2022-12-20T16:34:46.698Z,25.20
2022-12-20T16:36:49.743Z,25.73
2022-12-20T16:38:53.943Z,23.75
2022-12-20T16:40:56.927Z,23.45
2022-12-20T16:43:00.810Z,20.17
2022-12-20T16:45:03.861Z,19.63
2022-12-20T16:47:07.148Z,21.23
2022-12-20T16:49:19.775Z,21.33
2022-12-20T16:51:25.611Z,20.85
2022-12-20T16:53:34.495Z,23.40
2022-12-20T16:55:51.451Z,20.70
2022-12-20T16:57:54.625Z,21.10
2022-12-20T16:59:58.335Z,22.90
2022-12-20T17:02:01.887Z,22.85
2022-12-20T17:04:06.790Z,20.17
2022-12-20T17:06:12.426Z,17.20
2022-12-20T17:10:36.622Z,16.38
2022-12-20T17:12:39.743Z,38.63
2022-12-20T17:14:42.956Z,22.88
2022-12-20T17:16:46.009Z,31.05
2022-12-20T17:18:51.135Z,22.85
2022-12-20T17:20:54.181Z,17.05
2022-12-20T17:25:25.268Z,23.30
2022-12-20T17:27:29.085Z,20.67
2022-12-20T17:29:32.135Z,19.70
2022-12-20T17:31:39.084Z,19.45
2022-12-20T17:33:42.259Z,19.98
2022-12-20T17:35:45.237Z,20.00
2022-12-20T17:37:48.705Z,17.00
2022-12-20T17:39:53.143Z,16.30
2022-12-20T17:41:56.720Z,16.25
2022-12-20T17:44:00.551Z,14.80
2022-12-20T17:46:03.604Z,15.70
2022-12-20T17:48:07.302Z,18.77
2022-12-20T17:50:10.832Z,35.67
2022-12-20T17:52:15.473Z,147.05
2022-12-20T17:54:20.317Z,132.90
2022-12-20T17:56:26.523Z,18.40
2022-12-20T17:58:29.556Z,22.40
2022-12-20T18:00:38.826Z,25.30
2022-12-20T18:02:42.682Z,32.60
2022-12-20T18:04:47.181Z,31.58
2022-12-20T18:06:50.483Z,34.05
2022-12-20T18:08:54.652Z,34.03
2022-12-20T18:10:59.227Z,30.55
2022-12-20T18:13:03.819Z,27.27
2022-12-20T18:15:10.136Z,28.88
2022-12-20T18:17:13.354Z,27.52
2022-12-20T18:19:17.862Z,28.58
2022-12-20T18:21:21.786Z,26.67
2022-12-20T18:23:25.009Z,31.20
2022-12-20T18:25:30.411Z,25.30
2022-12-20T18:27:37.464Z,23.00
2022-12-20T18:29:42.057Z,30.00
2022-12-20T18:31:45.439Z,27.10
2022-12-20T18:33:55.611Z,22.10
2022-12-20T18:36:04.609Z,22.60
2022-12-20T18:38:07.964Z,24.58
2022-12-20T18:40:11.901Z,25.27
2022-12-20T18:42:15.040Z,27.92
2022-12-20T18:44:18.144Z,26.88
2022-12-20T18:46:23.615Z,25.23
2022-12-20T18:48:26.789Z,30.42
2022-12-20T18:50:29.961Z,28.38
2022-12-20T18:52:33.061Z,21.30
2022-12-20T18:54:36.163Z,25.92
2022-12-20T18:56:39.706Z,21.67
2022-12-20T18:58:43.047Z,26.60
2022-12-20T19:00:46.229Z,24.92
2022-12-20T19:02:51.349Z,20.05
2022-12-20T19:04:54.547Z,20.75
2022-12-20T19:06:57.708Z,20.67
2022-12-20T19:09:01.111Z,19.95
2022-12-20T19:11:07.760Z,22.15
2022-12-20T19:13:10.846Z,24.50
2022-12-20T19:15:14.566Z,25.35
2022-12-20T19:17:17.693Z,27.63
2022-12-20T19:19:22.307Z,26.08
2022-12-20T19:21:26.615Z,25.02
2022-12-20T19:23:29.752Z,25.25
2022-12-20T19:25:35.402Z,23.10
2022-12-20T19:27:38.592Z,22.55
2022-12-20T19:29:41.678Z,38.78
2022-12-20T19:31:44.981Z,34.53
2022-12-20T19:33:48.948Z,28.77
2022-12-20T19:35:55.805Z,34.05
2022-12-20T19:37:59.616Z,30.80
2022-12-20T19:40:02.987Z,28.58
2022-12-20T19:44:29.922Z,25.95
2022-12-20T19:46:33.810Z,27.02
2022-12-20T19:48:37.262Z,24.67
2022-12-20T19:50:40.398Z,25.60
2022-12-20T19:52:44.891Z,25.98
2022-12-20T19:54:48.601Z,23.80
2022-12-20T19:56:53.015Z,24.57
2022-12-20T19:58:56.645Z,24.60
2022-12-20T20:00:59.984Z,24.42
2022-12-20T20:03:03.210Z,23.42
2022-12-20T20:05:14.516Z,25.15
2022-12-20T20:07:18.184Z,24.02
2022-12-20T20:09:23.111Z,21.02
2022-12-20T20:11:27.468Z,22.40
2022-12-20T20:13:48.321Z,23.80
2022-12-20T20:15:52.531Z,21.00
2022-12-20T20:17:56.098Z,20.67
2022-12-20T20:19:59.250Z,21.90
2022-12-20T20:22:02.256Z,22.02
2022-12-20T20:24:09.735Z,23.35
2022-12-20T20:26:16.583Z,22.35
2022-12-20T20:28:19.821Z,21.95
2022-12-20T20:30:22.887Z,21.92
2022-12-20T20:32:26.027Z,25.65
2022-12-20T20:34:29.270Z,32.85
2022-12-20T20:36:38.159Z,31.42
2022-12-20T20:39:13.420Z,27.52
2022-12-20T20:41:18.027Z,27.17
2022-12-20T20:43:22.032Z,24.60
2022-12-20T20:45:25.317Z,29.38
2022-12-20T20:47:28.456Z,24.52
2022-12-20T20:49:31.701Z,21.88
2022-12-20T20:51:34.945Z,27.23
2022-12-20T20:53:38.398Z,24.40
2022-12-20T20:55:41.836Z,21.63
2022-12-20T20:57:46.373Z,23.60
2022-12-20T20:59:49.770Z,24.58
2022-12-20T21:01:53.573Z,22.70
2022-12-20T21:03:57.736Z,23.33
2022-12-20T21:08:24.229Z,23.45
2022-12-20T21:10:28.088Z,25.08
2022-12-20T21:12:31.571Z,27.25
2022-12-20T21:15:20.048Z,27.63
2022-12-20T21:16:59.853Z,24.50
2022-12-20T21:19:03.019Z,23.45
2022-12-20T21:21:08.411Z,24.65
2022-12-20T21:23:12.473Z,20.80
2022-12-20T21:25:15.840Z,20.75
2022-12-20T21:27:19.910Z,20.75
2022-12-20T21:29:24.042Z,19.23
2022-12-20T21:31:29.222Z,19.33
2022-12-20T21:33:32.881Z,20.58
2022-12-20T21:35:36.037Z,19.42
2022-12-20T21:37:39.257Z,18.80
2022-12-20T21:39:42.433Z,19.45
2022-12-20T21:41:45.472Z,23.52
2022-12-20T21:43:48.593Z,22.20
2022-12-20T21:45:54.394Z,25.30
2022-12-20T21:48:03.093Z,24.95
2022-12-20T21:50:08.166Z,22.08
2022-12-20T21:52:11.244Z,22.52
2022-12-20T21:54:14.448Z,27.05
2022-12-20T21:56:18.291Z,25.70
2022-12-20T21:58:22.076Z,33.65
2022-12-20T22:00:25.295Z,40.20
2022-12-20T22:02:29.080Z,35.78
2022-12-20T22:04:34.497Z,33.45
2022-12-20T22:06:37.598Z,32.30
2022-12-20T22:08:40.811Z,30.00
2022-12-20T22:10:44.266Z,25.55
2022-12-20T22:12:47.297Z,21.92
2022-12-20T22:14:50.374Z,23.65
2022-12-20T22:16:54.659Z,24.20
2022-12-20T22:19:05.615Z,23.45
2022-12-20T22:21:12.036Z,25.17
2022-12-20T22:23:15.625Z,25.10
2022-12-20T22:25:18.635Z,26.30
2022-12-20T22:27:21.697Z,26.25
2022-12-20T22:29:24.736Z,24.63
2022-12-20T22:31:28.755Z,21.65
2022-12-20T22:33:31.896Z,22.55
2022-12-20T22:35:35.658Z,19.70
2022-12-20T22:37:40.572Z,19.42
2022-12-20T22:39:43.692Z,20.30
2022-12-20T22:41:47.203Z,20.95
2022-12-20T22:43:50.801Z,21.35
2022-12-20T22:45:58.301Z,19.77
2022-12-20T22:48:01.460Z,19.10
2022-12-20T22:50:05.212Z,18.70
2022-12-20T22:52:08.877Z,17.05
2022-12-20T22:54:13.339Z,17.98
2022-12-20T22:56:17.210Z,16.73
2022-12-20T22:58:20.276Z,18.30
2022-12-20T23:00:23.487Z,17.60
2022-12-20T23:02:27.002Z,17.48
2022-12-20T23:04:30.414Z,22.63
2022-12-20T23:06:33.448Z,22.63
2022-12-20T23:08:37.750Z,19.25
2022-12-20T23:10:59.667Z,24.85
2022-12-20T23:13:20.063Z,27.58
2022-12-20T23:15:41.278Z,24.70
2022-12-20T23:17:44.464Z,22.13
2022-12-20T23:20:05.113Z,22.50
2022-12-20T23:22:36.339Z,21.30
2022-12-20T23:24:39.430Z,21.45
2022-12-20T23:26:44.551Z,22.88
2022-12-20T23:28:47.770Z,21.67
2022-12-20T23:30:50.796Z,25.05
2022-12-20T23:32:56.188Z,25.27
2022-12-20T23:34:59.470Z,25.13
2022-12-20T23:37:02.496Z,22.48
2022-12-20T23:39:05.868Z,19.17
2022-12-20T23:41:09.658Z,18.13
2022-12-20T23:43:14.036Z,18.60
2022-12-20T23:45:17.225Z,18.33
2022-12-20T23:47:20.700Z,17.85
2022-12-20T23:49:23.909Z,17.98
2022-12-20T23:51:27.259Z,16.95
2022-12-20T23:53:31.403Z,16.60
2022-12-20T23:55:34.545Z,16.85
2022-12-20T23:57:37.671Z,17.10
2022-12-20T23:59:42.272Z,17.05
